Aviation Digital Data Service (ADDS)

Output produced by METARs form (1909 UTC 03 August 2015)
found at http://aviationweather.gov/adds/metars/
 
KVQQ 031726Z 0318/0418 VRB06KT 5SM -SHRA BR OVC012 
     TEMPO 0318/0319 2SM -SHRA BR OVC008 
     FM031900 26011KT 5SM -SHRA BR OVC012 
     FM032000 24012KT P6SM -SHRA VCTS OVC025CB 
     TEMPO 0320/0324 VRB12G22KT 4SM -TSRA OVC018CB 
     FM040200 23009KT P6SM BKN025 OVC250 
     FM040600 24007KT P6SM SCT025 BKN250 
     FM041600 25007KT P6SM VCTS BKN035CB BKN250